MET8600 - Boston to McGuire AFB

Boeing 757-200W
773MU - Charter
0 hrs 55 mins
215 nm
Ferry - Daily

Departure

Departing from
Boston (BOS)
Departure gate
Scheduled Departure
GMT 1500
Local 1100

Arrival

Arriving at
McGuire AFB (WRI)
Arrival gate
Ramp
Scheduled Arrival
GMT 1555
Local 1155
METAR KWRI 281858Z AUTO 24015G19KT 10SM CLR 29/08 A2997 RMK AO2 SLP148 T02920082 $
TAF TAF KWRI 281800Z 2818/2924 24012KT 9999 SKC QNH2997INS BECMG 2906/2907 VRB06KT 4800 BR OVC040 WS020/21046KT QNH3004INS BECMG 2911/2912 26012G18KT 9999 NSW SCT015 QNH3005INS TEMPO 2913/2915 29015G25KT BECMG 2919/2920 27012G18KT 9999 OVC050 QNH3007INS BECMG

Route Map

Planning Resources

PATSS4 PATSS NELIE J75 GREKI J222 JFK V16 CYN
PATSS3 PATSS NELIE J75 GREKI J222 JFK V16 CYN
SSOXS4 SSOXS BUZRD SEY HTO J121 SARDI V139 DRIFT V312 CYN
PVD JFK KWRI
KBOS BURDY DRIFT CYN KWRI
Route:
OFP Layout:
Units:
Detailed Navlog:
ETOPS Planning:
Plan Stepclimbs:
Runway Analysis:
Include NOTAMS:
FIR NOTAMS:
Flight Maps:

Return Flights

MET8601
Boeing 757-200W
2155 GMT

Popularity

Hub Current Bids PiReps this month Total PiReps
KMCI 0 0 1
KLAX 0 0 2
KBOS 0 0 4